Time;durP1;ratioP1;P1;durP2;ratioP2;P2;SDS_P1;SDS_P2;PMS_P1;PMS_P2;Temp;Humidity;BMP_temperature;BMP_pressure;BME280_temperature;BME280_humidity;BME280_pressure;Samples;Min_cycle;Max_cycle;Signal;HPM_P1;HPM_P2
2022/06/03 00:02:04;;;;;;;4.68;3.53;;;;;;;;;;6205949;23;20067;-66
2022/06/03 00:04:49;;;;;;;5.45;3.63;;;;;;;;;;6206768;23;20021;-65
2022/06/03 00:07:34;;;;;;;5.57;4.05;;;;;;;;;;6211767;23;20095;-65
2022/06/03 00:10:19;;;;;;;4.82;3.80;;;;;;;;;;6206396;23;20111;-65
2022/06/03 00:12:45;;;;;;;5.63;4.10;;;;;;;;;;6212330;23;20462;-65
2022/06/03 00:15:21;;;;;;;6.85;3.80;;;;;;;;;;6198239;23;20020;-65
2022/06/03 00:17:55;;;;;;;6.55;4.10;;;;;;;;;;6205272;23;20103;-65
2022/06/03 00:20:48;;;;;;;5.35;3.70;;;;;;;;;;6204322;23;20103;-65
2022/06/03 00:23:23;;;;;;;5.57;4.10;;;;;;;;;;6211911;23;20541;-65
2022/06/03 00:26:08;;;;;;;6.55;4.30;;;;;;;;;;6203075;23;20536;-65
2022/06/03 00:28:49;;;;;;;6.30;4.22;;;;;;;;;;6205739;23;20016;-65
2022/06/03 00:31:15;;;;;;;5.32;4.05;;;;;;;;;;6197758;23;20020;-65
2022/06/03 00:33:57;;;;;;;6.60;4.38;;;;;;;;;;6211697;23;20027;-65
2022/06/03 00:36:32;;;;;;;8.10;4.07;;;;;;;;;;6204251;23;20539;-65
2022/06/03 00:39:17;;;;;;;5.50;4.32;;;;;;;;;;6212073;23;20107;-65
2022/06/03 00:41:50;;;;;;;6.35;4.22;;;;;;;;;;6201761;23;20024;-65
2022/06/03 00:44:19;;;;;;;7.50;4.20;;;;;;;;;;6202755;23;20485;-65
2022/06/03 00:47:02;;;;;;;7.30;3.90;;;;;;;;;;6211181;23;20035;-65
2022/06/03 00:49:41;;;;;;;6.05;4.22;;;;;;;;;;6210280;23;20103;-65
2022/06/03 00:52:26;;;;;;;5.97;3.70;;;;;;;;;;6211689;23;20490;-64
2022/06/03 00:55:10;;;;;;;11.57;4.80;;;;;;;;;;6205279;23;20071;-65
2022/06/03 00:57:52;;;;;;;5.95;4.35;;;;;;;;;;6207491;23;20056;-65
2022/06/03 01:00:24;;;;;;;5.55;4.03;;;;;;;;;;6203118;23;20067;-65
2022/06/03 01:02:57;;;;;;;6.80;4.47;;;;;;;;;;6213751;23;20415;-66
2022/06/03 01:05:23;;;;;;;5.80;4.47;;;;;;;;;;6204509;23;20054;-65
2022/06/03 01:07:49;;;;;;;6.00;4.28;;;;;;;;;;6214011;23;20104;-65
2022/06/03 01:10:21;;;;;;;7.85;4.40;;;;;;;;;;6200307;23;20087;-65
2022/06/03 01:13:02;;;;;;;7.10;4.68;;;;;;;;;;6207656;23;20024;-65
2022/06/03 01:15:28;;;;;;;7.35;4.30;;;;;;;;;;6204232;23;20024;-64
2022/06/03 01:17:55;;;;;;;5.40;4.10;;;;;;;;;;6213510;23;20063;-65
2022/06/03 01:20:39;;;;;;;4.78;4.20;;;;;;;;;;6213209;23;20103;-64
2022/06/03 01:23:27;;;;;;;6.68;4.10;;;;;;;;;;6213429;23;20357;-66
2022/06/03 01:26:09;;;;;;;6.50;4.43;;;;;;;;;;6204023;23;20091;-65
2022/06/03 01:28:38;;;;;;;6.20;4.28;;;;;;;;;;6210863;23;20465;-65
2022/06/03 01:31:23;;;;;;;6.32;3.97;;;;;;;;;;6213919;23;20093;-65
2022/06/03 01:33:55;;;;;;;5.80;4.03;;;;;;;;;;6204834;23;20187;-64
2022/06/03 01:36:34;;;;;;;10.50;4.40;;;;;;;;;;6213271;23;20092;-64
2022/06/03 01:39:30;;;;;;;6.90;4.25;;;;;;;;;;6198425;22;20052;-65
2022/06/03 01:42:14;;;;;;;7.75;3.88;;;;;;;;;;6188931;23;20056;-65
2022/06/03 01:44:40;;;;;;;7.95;4.20;;;;;;;;;;6203799;22;20092;-64
2022/06/03 01:47:25;;;;;;;7.15;3.97;;;;;;;;;;6211803;23;20063;-65
2022/06/03 01:50:02;;;;;;;5.63;3.97;;;;;;;;;;6205499;23;20063;-64
2022/06/03 01:52:29;;;;;;;6.85;4.22;;;;;;;;;;6207515;23;20091;-64
2022/06/03 01:54:55;;;;;;;5.43;4.20;;;;;;;;;;6199804;23;20063;-65
2022/06/03 01:57:34;;;;;;;6.50;4.00;;;;;;;;;;6212367;23;20517;-64
2022/06/03 02:00:14;;;;;;;6.20;4.55;;;;;;;;;;6204559;23;20024;-65
2022/06/03 02:02:46;;;;;;;7.15;3.88;;;;;;;;;;6213179;23;20091;-65
2022/06/03 02:05:24;;;;;;;6.57;4.13;;;;;;;;;;6208946;23;20021;-65
2022/06/03 02:07:51;;;;;;;;;;;;;;;;;;6204169;23;20172;-65
2022/06/03 02:10:32;;;;;;;6.40;4.05;;;;;;;;;;6209805;23;19990;-65
2022/06/03 02:13:14;;;;;;;6.32;3.80;;;;;;;;;;6205428;23;20056;-65
2022/06/03 02:15:52;;;;;;;9.27;4.63;;;;;;;;;;6213048;23;20056;-65
2022/06/03 02:18:28;;;;;;;6.15;3.67;;;;;;;;;;6204806;23;20400;-65
2022/06/03 02:21:05;;;;;;;5.28;4.03;;;;;;;;;;6207019;23;20063;-66
2022/06/03 02:23:50;;;;;;;5.40;4.18;;;;;;;;;;6199582;23;20059;-65
2022/06/03 02:26:35;;;;;;;6.22;4.38;;;;;;;;;;6212476;23;20070;-66
2022/06/03 02:32:21;;;;;;;5.30;4.07;;;;;;;;;;6213128;23;20078;-65
2022/06/03 02:35:14;;;;;;;6.68;4.32;;;;;;;;;;6198948;23;20742;-66
2022/06/03 02:37:53;;;;;;;6.68;4.50;;;;;;;;;;6171649;23;20358;-65
2022/06/03 02:40:39;;;;;;;6.05;4.18;;;;;;;;;;6205218;23;20096;-65
2022/06/03 02:43:19;;;;;;;6.57;3.92;;;;;;;;;;6166723;23;20099;-65
2022/06/03 02:45:48;;;;;;;5.35;4.10;;;;;;;;;;6204982;23;20033;-65
2022/06/03 02:48:28;;;;;;;6.60;4.13;;;;;;;;;;6206574;23;20101;-65
2022/06/03 02:51:10;;;;;;;5.07;3.63;;;;;;;;;;6198267;23;20099;-66
2022/06/03 02:53:55;;;;;;;5.57;4.13;;;;;;;;;;6212026;23;20021;-65
2022/06/03 02:56:24;;;;;;;6.60;3.88;;;;;;;;;;6205125;23;20075;-65
2022/06/03 02:59:09;;;;;;;5.50;4.03;;;;;;;;;;6212569;23;20100;-65
2022/06/03 03:01:54;;;;;;;6.38;4.22;;;;;;;;;;6201940;23;20096;-65
2022/06/03 03:04:30;;;;;;;5.82;4.30;;;;;;;;;;6204853;23;20027;-65
2022/06/03 03:07:09;;;;;;;6.03;4.18;;;;;;;;;;6205060;23;20066;-65
2022/06/03 03:09:44;;;;;;;5.93;3.90;;;;;;;;;;6212876;23;20457;-63
2022/06/03 03:12:18;;;;;;;7.00;4.18;;;;;;;;;;6203542;23;20100;-65
2022/06/03 03:14:50;;;;;;;5.60;4.22;;;;;;;;;;6212437;23;20060;-64
2022/06/03 03:17:26;;;;;;;6.85;3.55;;;;;;;;;;6170038;23;20099;-64
2022/06/03 03:20:11;;;;;;;5.80;3.22;;;;;;;;;;6208721;23;20107;-64
2022/06/03 03:22:37;;;;;;;6.07;4.22;;;;;;;;;;6212167;23;20100;-64
2022/06/03 03:25:22;;;;;;;6.65;4.03;;;;;;;;;;6204139;23;20095;-64
2022/06/03 03:28:00;;;;;;;7.43;4.00;;;;;;;;;;6212235;23;20016;-65
2022/06/03 03:30:26;;;;;;;6.33;4.07;;;;;;;;;;6197863;23;20056;-65
2022/06/03 03:33:05;;;;;;;5.55;4.45;;;;;;;;;;6205912;23;20104;-64
2022/06/03 03:35:57;;;;;;;5.97;4.03;;;;;;;;;;6204817;23;20040;-66
2022/06/03 03:38:40;;;;;;;5.78;4.10;;;;;;;;;;6211629;23;20091;-64
2022/06/03 03:41:25;;;;;;;6.15;4.22;;;;;;;;;;6204445;23;20040;-65
2022/06/03 03:44:11;;;;;;;8.05;4.32;;;;;;;;;;6206524;23;20035;-65
2022/06/03 03:46:50;;;;;;;7.78;4.55;;;;;;;;;;6199029;23;20497;-65
2022/06/03 03:49:27;;;;;;;5.03;3.80;;;;;;;;;;6211389;23;20056;-65
2022/06/03 03:52:04;;;;;;;5.70;3.75;;;;;;;;;;6205349;22;20017;-65
2022/06/03 03:54:39;;;;;;;5.82;3.72;;;;;;;;;;6211807;23;20071;-65
2022/06/03 03:57:09;;;;;;;7.03;3.85;;;;;;;;;;6204075;23;20056;-65
2022/06/03 03:59:54;;;;;;;6.25;4.20;;;;;;;;;;6204054;23;20036;-65
2022/06/03 04:02:23;;;;;;;5.70;3.80;;;;;;;;;;6203732;23;20020;-65
2022/06/03 04:04:50;;;;;;;7.53;4.53;;;;;;;;;;6212136;23;20063;-64
2022/06/03 04:07:22;;;;;;;8.13;4.63;;;;;;;;;;6203851;23;20100;-65
2022/06/03 04:09:54;;;;;;;8.07;4.75;;;;;;;;;;6185845;23;20059;-65
2022/06/03 04:12:21;;;;;;;5.50;4.13;;;;;;;;;;6206378;23;20091;-66
2022/06/03 04:14:53;;;;;;;6.70;5.00;;;;;;;;;;6198623;23;20513;-65
2022/06/03 04:17:38;;;;;;;7.53;4.97;;;;;;;;;;6211605;23;20047;-64
2022/06/03 04:20:16;;;;;;;5.93;5.13;;;;;;;;;;6205236;23;20059;-65
2022/06/03 04:22:47;;;;;;;7.13;4.40;;;;;;;;;;6211719;23;20391;-65
2022/06/03 04:25:36;;;;;;;12.48;5.15;;;;;;;;;;6204778;22;20180;-65
2022/06/03 04:28:15;;;;;;;10.68;4.60;;;;;;;;;;6204184;23;20016;-65
2022/06/03 04:30:47;;;;;;;9.23;4.57;;;;;;;;;;6204115;22;20023;-65
2022/06/03 04:33:29;;;;;;;9.35;4.38;;;;;;;;;;6213542;23;20025;-66
2022/06/03 04:36:04;;;;;;;7.18;4.68;;;;;;;;;;6206557;22;20021;-65
2022/06/03 04:38:37;;;;;;;10.00;5.85;;;;;;;;;;6214659;23;20502;-65
2022/06/03 04:41:12;;;;;;;10.35;5.05;;;;;;;;;;6199565;23;20390;-66
2022/06/03 04:43:41;;;;;;;6.78;4.80;;;;;;;;;;6212634;23;20115;-65
2022/06/03 04:46:11;;;;;;;9.88;5.15;;;;;;;;;;6207154;23;20396;-65
2022/06/03 04:48:43;;;;;;;7.10;4.65;;;;;;;;;;6213367;23;20021;-64
2022/06/03 04:51:12;;;;;;;7.10;4.80;;;;;;;;;;6213863;23;20493;-65
2022/06/03 04:53:45;;;;;;;7.68;4.53;;;;;;;;;;6199953;23;20104;-64
2022/06/03 04:56:30;;;;;;;7.43;4.57;;;;;;;;;;6207977;23;20099;-64
2022/06/03 04:59:15;;;;;;;8.48;4.82;;;;;;;;;;6206724;23;20056;-66
2022/06/03 05:02:05;;;;;;;6.72;4.40;;;;;;;;;;6213864;23;20027;-65
2022/06/03 05:04:50;;;;;;;9.63;5.03;;;;;;;;;;6180391;23;20028;-63
2022/06/03 05:07:35;;;;;;;6.97;4.95;;;;;;;;;;6209005;23;20048;-65
2022/06/03 05:10:36;;;;;;;6.95;4.97;;;;;;;;;;6202025;23;20021;-64
2022/06/03 05:13:21;;;;;;;8.90;4.80;;;;;;;;;;6214284;23;20564;-64
2022/06/03 05:16:06;;;;;;;10.15;5.40;;;;;;;;;;6206297;23;20095;-65
2022/06/03 05:19:01;;;;;;;7.68;5.30;;;;;;;;;;6214292;23;20100;-65
2022/06/03 05:21:36;;;;;;;8.10;5.05;;;;;;;;;;6200547;23;20016;-65
2022/06/03 05:24:05;;;;;;;8.98;5.07;;;;;;;;;;6209854;23;20103;-65
2022/06/03 05:26:50;;;;;;;9.82;6.30;;;;;;;;;;6206483;23;20021;-65
2022/06/03 05:29:25;;;;;;;9.63;5.07;;;;;;;;;;6213988;23;20063;-63
2022/06/03 05:32:03;;;;;;;6.07;4.05;;;;;;;;;;6207275;23;20062;-64
2022/06/03 05:34:59;;;;;;;6.97;5.00;;;;;;;;;;6213015;23;20056;-65
2022/06/03 05:37:34;;;;;;;8.43;5.40;;;;;;;;;;6180103;23;20316;-65
2022/06/03 05:40:19;;;;;;;7.47;5.38;;;;;;;;;;6212993;23;20369;-65
2022/06/03 05:43:04;;;;;;;8.25;5.60;;;;;;;;;;6206296;23;20063;-64
2022/06/03 05:45:30;;;;;;;7.07;5.13;;;;;;;;;;6213176;23;20055;-65
2022/06/03 05:48:00;;;;;;;7.55;5.15;;;;;;;;;;6204952;23;20056;-67
2022/06/03 05:50:46;;;;;;;11.45;5.47;;;;;;;;;;6205681;23;20411;-64
2022/06/03 05:53:12;;;;;;;6.78;4.90;;;;;;;;;;6204616;23;20060;-64
2022/06/03 05:55:51;;;;;;;8.90;5.70;;;;;;;;;;6213173;23;20095;-67
2022/06/03 05:58:26;;;;;;;7.93;5.05;;;;;;;;;;6211298;23;20063;-64
2022/06/03 06:01:13;;;;;;;8.63;5.32;;;;;;;;;;6213154;23;20020;-64
2022/06/03 06:03:48;;;;;;;6.78;5.25;;;;;;;;;;6207230;23;20021;-65
2022/06/03 06:06:35;;;;;;;7.70;5.70;;;;;;;;;;6202573;23;20453;-64
2022/06/03 06:09:05;;;;;;;8.07;5.13;;;;;;;;;;6213531;23;20071;-66
2022/06/03 06:12:00;;;;;;;5.85;4.35;;;;;;;;;;6206181;23;20017;-65
2022/06/03 06:14:42;;;;;;;8.48;5.40;;;;;;;;;;6193604;23;20048;-65
2022/06/03 06:17:20;;;;;;;7.20;4.70;;;;;;;;;;6198892;23;20048;-65
2022/06/03 06:19:53;;;;;;;6.15;4.78;;;;;;;;;;6180118;23;20048;-64
2022/06/03 06:22:25;;;;;;;7.85;5.57;;;;;;;;;;6206187;23;20156;-65
2022/06/03 06:24:54;;;;;;;7.22;5.05;;;;;;;;;;6213690;23;20123;-65
2022/06/03 06:27:40;;;;;;;8.65;5.40;;;;;;;;;;6206854;23;20027;-64
2022/06/03 06:30:22;;;;;;;7.90;5.05;;;;;;;;;;6213340;23;20047;-66
2022/06/03 06:33:07;;;;;;;7.38;4.68;;;;;;;;;;6198351;23;20501;-63
2022/06/03 06:35:50;;;;;;;8.68;4.40;;;;;;;;;;6214296;23;20374;-64
2022/06/03 06:38:19;;;;;;;9.80;5.78;;;;;;;;;;6205185;23;20095;-65
2022/06/03 06:40:47;;;;;;;10.23;5.65;;;;;;;;;;6213853;23;20060;-64
2022/06/03 06:43:32;;;;;;;7.50;6.00;;;;;;;;;;6206186;22;20055;-65
2022/06/03 06:46:21;;;;;;;9.52;6.47;;;;;;;;;;6208504;23;20594;-64
2022/06/03 06:48:51;;;;;;;12.98;5.68;;;;;;;;;;6162939;23;20027;-63
2022/06/03 06:51:29;;;;;;;6.85;5.60;;;;;;;;;;6213374;23;20100;-65
2022/06/03 06:54:25;;;;;;;7.20;5.10;;;;;;;;;;6205274;23;20395;-65
2022/06/03 06:56:59;;;;;;;7.25;4.43;;;;;;;;;;6192078;23;20760;-65
2022/06/03 06:59:35;;;;;;;8.93;5.60;;;;;;;;;;6198974;23;20852;-65
2022/06/03 07:02:13;;;;;;;10.73;6.00;;;;;;;;;;6213319;23;20044;-64
2022/06/03 07:04:43;;;;;;;6.47;4.57;;;;;;;;;;6212471;22;20043;-65
2022/06/03 07:07:15;;;;;;;6.55;4.47;;;;;;;;;;6209819;23;20127;-66
2022/06/03 07:09:53;;;;;;;8.15;5.18;;;;;;;;;;6213502;23;20505;-64
2022/06/03 07:12:22;;;;;;;5.82;4.30;;;;;;;;;;6199807;23;20017;-64
2022/06/03 07:15:14;;;;;;;9.00;5.97;;;;;;;;;;6209032;23;20021;-64
2022/06/03 07:20:32;;;;;;;9.52;6.60;;;;;;;;;;6213777;23;20350;-64
2022/06/03 07:23:22;;;;;;;8.02;5.93;;;;;;;;;;6205998;23;20104;-65
2022/06/03 07:25:54;;;;;;;6.85;5.68;;;;;;;;;;6164905;23;20052;-65
2022/06/03 07:28:31;;;;;;;8.82;5.60;;;;;;;;;;6199356;23;20023;-65
2022/06/03 07:31:24;;;;;;;7.88;5.82;;;;;;;;;;6212907;23;20068;-65
2022/06/03 07:33:54;;;;;;;6.70;5.35;;;;;;;;;;6159169;23;20497;-67
2022/06/03 07:36:36;;;;;;;9.38;6.15;;;;;;;;;;6212865;23;20370;-64
2022/06/03 07:39:21;;;;;;;7.95;6.60;;;;;;;;;;6200826;23;20108;-65
2022/06/03 07:41:51;;;;;;;7.78;5.38;;;;;;;;;;6207025;23;20056;-65
2022/06/03 07:44:23;;;;;;;7.43;6.20;;;;;;;;;;6202264;23;20035;-63
2022/06/03 07:47:01;;;;;;;10.60;4.85;;;;;;;;;;6212910;23;20048;-65
2022/06/03 07:49:28;;;;;;;;;;;;;;;;;;6180237;22;20024;-63
2022/06/03 07:51:57;;;;;;;9.65;5.22;;;;;;;;;;6182929;23;19951;-65
2022/06/03 07:54:28;;;;;;;10.35;6.25;;;;;;;;;;6205477;23;20091;-65
2022/06/03 07:57:05;;;;;;;8.48;5.50;;;;;;;;;;6205094;23;20040;-65
2022/06/03 07:59:32;;;;;;;7.70;5.15;;;;;;;;;;6213198;23;20072;-65
2022/06/03 08:02:01;;;;;;;7.60;5.20;;;;;;;;;;6204219;23;20048;-65
2022/06/03 08:04:29;;;;;;;11.10;5.65;;;;;;;;;;6185669;23;20021;-65
2022/06/03 08:12:31;;;;;;;9.18;5.32;;;;;;;;;;6205096;23;20390;-63
2022/06/03 08:14:58;;;;;;;7.55;4.15;;;;;;;;;;6212508;23;20143;-64
2022/06/03 08:17:25;;;;;;;9.48;4.75;;;;;;;;;;6205330;23;20155;-65
2022/06/03 08:19:53;;;;;;;7.53;5.00;;;;;;;;;;6206727;23;20060;-66
2022/06/03 08:22:21;;;;;;;8.43;5.00;;;;;;;;;;6206271;23;20021;-67
2022/06/03 08:24:51;;;;;;;7.40;4.80;;;;;;;;;;6205143;23;20033;-66
2022/06/03 08:27:23;;;;;;;7.75;5.65;;;;;;;;;;6212201;23;20100;-65
2022/06/03 08:30:13;;;;;;;5.40;4.03;;;;;;;;;;6204208;23;20071;-65
2022/06/03 08:32:42;;;;;;;5.85;4.65;;;;;;;;;;6211989;23;20021;-65
2022/06/03 08:35:18;;;;;;;5.93;4.68;;;;;;;;;;6195443;22;20071;-65
2022/06/03 08:37:50;;;;;;;12.32;4.90;;;;;;;;;;6209644;23;20048;-65
2022/06/03 08:40:35;;;;;;;7.47;4.30;;;;;;;;;;6204586;23;20095;-66
2022/06/03 08:43:25;;;;;;;5.80;4.40;;;;;;;;;;6212519;23;20059;-65
2022/06/03 08:45:54;;;;;;;4.85;3.33;;;;;;;;;;6161253;23;20398;-66
2022/06/03 08:48:22;;;;;;;7.30;4.32;;;;;;;;;;6206253;23;20441;-65
2022/06/03 08:50:59;;;;;;;6.68;4.70;;;;;;;;;;6197972;23;20529;-65
2022/06/03 08:53:35;;;;;;;6.88;4.10;;;;;;;;;;6211787;23;20905;-66
2022/06/03 08:56:07;;;;;;;5.78;4.53;;;;;;;;;;6205395;23;20405;-67
2022/06/03 08:58:55;;;;;;;8.68;4.60;;;;;;;;;;6211706;23;20025;-66
2022/06/03 09:01:27;;;;;;;4.60;3.30;;;;;;;;;;6198755;23;20103;-65
2022/06/03 09:04:13;;;;;;;4.72;3.35;;;;;;;;;;6204065;23;20390;-65
2022/06/03 09:06:57;;;;;;;6.30;3.42;;;;;;;;;;6211435;23;20522;-65
2022/06/03 09:09:26;;;;;;;5.00;3.70;;;;;;;;;;6207599;23;20062;-65
2022/06/03 09:11:59;;;;;;;4.82;3.80;;;;;;;;;;6211586;23;20119;-65
2022/06/03 09:14:27;;;;;;;9.35;3.88;;;;;;;;;;6203079;23;20658;-66
2022/06/03 09:16:57;;;;;;;5.55;3.30;;;;;;;;;;6207815;23;20028;-65
2022/06/03 09:19:30;;;;;;;8.20;3.67;;;;;;;;;;6201807;23;20031;-66
2022/06/03 09:21:58;;;;;;;7.50;3.50;;;;;;;;;;6213773;23;20516;-66
2022/06/03 09:24:31;;;;;;;6.45;3.53;;;;;;;;;;6206038;23;20035;-67
2022/06/03 09:26:58;;;;;;;5.28;3.60;;;;;;;;;;6213210;23;20501;-67
2022/06/03 09:29:25;;;;;;;7.32;4.53;;;;;;;;;;6200691;23;20032;-66
2022/06/03 09:31:53;;;;;;;4.78;3.30;;;;;;;;;;6206487;23;20024;-66
2022/06/03 09:34:25;;;;;;;5.32;3.03;;;;;;;;;;6213684;23;20047;-66
2022/06/03 09:36:52;;;;;;;5.97;3.50;;;;;;;;;;6206285;22;20068;-66
2022/06/03 09:39:38;;;;;;;4.07;3.00;;;;;;;;;;6214240;23;20017;-66
2022/06/03 09:42:05;;;;;;;4.57;2.88;;;;;;;;;;6206783;23;20100;-66
2022/06/03 09:44:32;;;;;;;7.00;3.42;;;;;;;;;;6206958;23;20411;-66
2022/06/03 09:47:04;;;;;;;6.03;3.22;;;;;;;;;;6205707;23;20520;-66
2022/06/03 09:49:32;;;;;;;5.75;3.30;;;;;;;;;;6213264;23;20095;-66
2022/06/03 09:52:03;;;;;;;7.53;3.90;;;;;;;;;;6205273;23;20500;-66
2022/06/03 09:54:34;;;;;;;4.80;3.40;;;;;;;;;;6212051;23;20028;-67
2022/06/03 09:57:21;;;;;;;4.20;3.33;;;;;;;;;;6201297;23;20028;-66
2022/06/03 09:59:53;;;;;;;4.05;3.33;;;;;;;;;;6208309;23;20024;-66
2022/06/03 10:02:19;;;;;;;4.18;3.05;;;;;;;;;;6207492;23;20060;-66
2022/06/03 10:04:46;;;;;;;3.45;2.47;;;;;;;;;;6210392;23;20669;-66
2022/06/03 10:07:12;;;;;;;5.28;2.67;;;;;;;;;;6212381;23;20098;-66
2022/06/03 10:12:50;;;;;;;5.55;3.00;;;;;;;;;;6206123;23;20023;-67
2022/06/03 10:15:40;;;;;;;6.53;2.85;;;;;;;;;;6202178;22;20027;-66
2022/06/03 10:18:22;;;;;;;5.25;2.75;;;;;;;;;;6212159;23;20020;-65
2022/06/03 10:20:50;;;;;;;3.72;2.60;;;;;;;;;;6203638;23;20404;-65
2022/06/03 10:23:19;;;;;;;3.22;2.38;;;;;;;;;;6207714;23;20021;-66
2022/06/03 10:26:05;;;;;;;3.78;2.35;;;;;;;;;;6199598;23;20027;-66
2022/06/03 10:28:35;;;;;;;3.45;2.72;;;;;;;;;;6211618;23;20058;-65
2022/06/03 10:31:04;;;;;;;3.88;2.95;;;;;;;;;;6205852;23;20059;-65
2022/06/03 10:33:30;;;;;;;4.00;2.92;;;;;;;;;;6212083;23;20119;-66
2022/06/03 10:35:58;;;;;;;4.75;3.67;;;;;;;;;;6210627;23;20111;-65
2022/06/03 10:38:27;;;;;;;8.65;2.85;;;;;;;;;;6202217;23;20016;-66
2022/06/03 10:40:54;;;;;;;5.57;2.70;;;;;;;;;;6206487;23;20059;-66
2022/06/03 10:43:22;;;;;;;3.23;2.60;;;;;;;;;;6177532;23;20044;-67
2022/06/03 10:45:49;;;;;;;4.40;2.53;;;;;;;;;;6212618;23;20337;-67
2022/06/03 10:48:23;;;;;;;3.40;2.35;;;;;;;;;;6203519;22;20078;-67
2022/06/03 10:50:50;;;;;;;3.45;2.17;;;;;;;;;;6212680;23;20048;-66
2022/06/03 11:01:43;;;;;;;7.75;2.10;;;;;;;;;;6212492;23;20048;-66
2022/06/03 11:04:30;;;;;;;3.63;2.00;;;;;;;;;;6204726;23;20024;-66
2022/06/03 11:07:01;;;;;;;4.23;1.93;;;;;;;;;;6203239;23;20331;-66
2022/06/03 11:09:28;;;;;;;2.33;1.92;;;;;;;;;;6201739;22;20020;-65
2022/06/03 11:12:02;;;;;;;4.30;1.92;;;;;;;;;;6211779;23;20104;-66
2022/06/03 11:14:32;;;;;;;2.50;2.03;;;;;;;;;;6211566;23;20103;-66
2022/06/03 11:17:01;;;;;;;2.30;1.60;;;;;;;;;;6204543;22;20565;-65
2022/06/03 11:19:32;;;;;;;2.67;1.40;;;;;;;;;;6205700;23;20099;-66
2022/06/03 11:22:14;;;;;;;2.50;1.95;;;;;;;;;;6198280;23;20099;-66
2022/06/03 11:24:40;;;;;;;7.13;1.58;;;;;;;;;;6211586;23;20021;-65
2022/06/03 11:27:08;;;;;;;2.17;1.80;;;;;;;;;;6202469;23;20059;-66
2022/06/03 11:29:34;;;;;;;;;;;;;;;;;;6212525;23;20454;-66
2022/06/03 11:32:02;;;;;;;2.08;1.88;;;;;;;;;;6203912;23;20389;-65
2022/06/03 11:34:30;;;;;;;2.50;1.95;;;;;;;;;;6205812;23;20465;-65
2022/06/03 11:37:01;;;;;;;4.38;1.90;;;;;;;;;;6206565;22;20110;-66
2022/06/03 11:39:33;;;;;;;2.75;1.67;;;;;;;;;;6207632;23;20063;-65
2022/06/03 11:42:04;;;;;;;4.68;1.83;;;;;;;;;;6212645;23;20052;-65
2022/06/03 11:45:00;;;;;;;4.95;1.77;;;;;;;;;;6203427;23;20111;-65
2022/06/03 11:47:35;;;;;;;1.70;1.50;;;;;;;;;;6185603;23;20056;-65
2022/06/03 11:50:01;;;;;;;3.30;1.70;;;;;;;;;;6204254;23;20024;-67
2022/06/03 11:52:28;;;;;;;3.13;1.50;;;;;;;;;;6211681;23;20099;-66
2022/06/03 11:54:54;;;;;;;3.90;1.70;;;;;;;;;;6203658;23;20027;-67
2022/06/03 11:57:21;;;;;;;5.03;1.90;;;;;;;;;;6211458;23;20079;-66
2022/06/03 11:59:52;;;;;;;2.00;1.80;;;;;;;;;;6198682;23;20040;-66
2022/06/03 12:02:21;;;;;;;2.55;1.88;;;;;;;;;;6205795;23;20052;-66
2022/06/03 12:04:51;;;;;;;1.92;1.65;;;;;;;;;;6211193;23;20027;-66
2022/06/03 12:07:28;;;;;;;4.38;2.78;;;;;;;;;;6203870;23;20055;-66
2022/06/03 12:10:01;;;;;;;2.85;1.77;;;;;;;;;;6211963;23;20501;-66
2022/06/03 12:15:33;;;;;;;3.25;1.83;;;;;;;;;;6202411;23;20100;-66
2022/06/03 12:17:59;;;;;;;;;;;;;;;;;;6203853;23;20402;-66
2022/06/03 12:20:30;;;;;;;4.32;1.90;;;;;;;;;;6211169;23;19958;-66
2022/06/03 12:22:57;;;;;;;3.75;1.38;;;;;;;;;;6204399;23;20052;-66
2022/06/03 12:25:34;;;;;;;3.80;1.80;;;;;;;;;;6211034;23;20338;-66
2022/06/03 12:28:01;;;;;;;2.00;1.35;;;;;;;;;;6203087;23;20020;-65
2022/06/03 12:30:33;;;;;;;2.35;1.60;;;;;;;;;;6210858;23;20457;-67
2022/06/03 12:33:02;;;;;;;4.03;1.80;;;;;;;;;;6207058;23;20074;-67
2022/06/03 12:35:47;;;;;;;2.90;1.65;;;;;;;;;;6210694;23;20083;-66
2022/06/03 12:38:19;;;;;;;2.35;1.45;;;;;;;;;;6205224;23;20497;-66
2022/06/03 12:40:47;;;;;;;3.38;1.92;;;;;;;;;;6197722;23;20496;-66
2022/06/03 12:43:22;;;;;;;2.60;1.58;;;;;;;;;;6211070;23;20063;-67
2022/06/03 12:46:02;;;;;;;4.35;1.70;;;;;;;;;;6204502;23;20067;-66
2022/06/03 12:48:47;;;;;;;3.95;1.77;;;;;;;;;;6211344;23;20028;-67
2022/06/03 12:51:24;;;;;;;2.28;1.73;;;;;;;;;;6199859;23;20150;-66
2022/06/03 12:53:56;;;;;;;4.03;1.80;;;;;;;;;;6180630;23;20064;-66
2022/06/03 12:56:33;;;;;;;3.70;2.08;;;;;;;;;;6203434;22;20103;-66
2022/06/03 12:59:04;;;;;;;4.80;2.17;;;;;;;;;;6213312;23;20124;-66
2022/06/03 13:01:47;;;;;;;3.97;1.80;;;;;;;;;;6205868;23;21317;-66
2022/06/03 13:04:24;;;;;;;4.68;2.17;;;;;;;;;;6212804;23;20021;-67
2022/06/03 13:07:10;;;;;;;2.88;1.63;;;;;;;;;;6195672;23;20497;-66
2022/06/03 13:09:56;;;;;;;1.77;1.55;;;;;;;;;;6213213;23;20517;-65
2022/06/03 13:12:32;;;;;;;3.53;1.70;;;;;;;;;;6188776;23;20446;-66
2022/06/03 13:15:17;;;;;;;2.65;1.70;;;;;;;;;;6214010;23;20407;-66
2022/06/03 13:17:57;;;;;;;5.00;2.13;;;;;;;;;;6206335;23;20047;-66
2022/06/03 13:20:47;;;;;;;4.43;2.05;;;;;;;;;;6206557;23;20546;-66
2022/06/03 13:23:20;;;;;;;2.38;1.70;;;;;;;;;;6193031;22;20087;-65
2022/06/03 13:25:47;;;;;;;3.47;1.35;;;;;;;;;;6213828;23;20112;-65
2022/06/03 13:28:37;;;;;;;6.72;2.00;;;;;;;;;;6213817;23;20025;-66
2022/06/03 13:31:03;;;;;;;3.10;1.95;;;;;;;;;;6214217;23;20044;-67
2022/06/03 13:33:30;;;;;;;5.95;3.38;;;;;;;;;;6207575;23;20021;-66
2022/06/03 13:35:58;;;;;;;2.83;2.50;;;;;;;;;;6199638;22;20107;-67
2022/06/03 13:38:38;;;;;;;3.83;2.00;;;;;;;;;;6212404;23;20055;-65
2022/06/03 13:44:08;;;;;;;4.55;1.90;;;;;;;;;;6214120;23;20021;-66
2022/06/03 13:46:36;;;;;;;4.07;1.73;;;;;;;;;;6203895;22;20111;-65
2022/06/03 13:49:10;;;;;;;6.10;1.98;;;;;;;;;;6205845;23;20095;-65
2022/06/03 13:51:47;;;;;;;3.30;2.30;;;;;;;;;;6205613;23;20383;-66
2022/06/03 13:54:16;;;;;;;2.25;1.80;;;;;;;;;;6212765;23;20025;-65
2022/06/03 13:57:02;;;;;;;2.95;2.00;;;;;;;;;;6205692;23;20066;-66
2022/06/03 13:59:33;;;;;;;2.72;2.00;;;;;;;;;;6212282;23;20067;-66
2022/06/03 14:02:00;;;;;;;6.13;2.28;;;;;;;;;;6196718;22;20395;-66
2022/06/03 14:04:31;;;;;;;3.60;2.03;;;;;;;;;;6211309;23;20048;-66
2022/06/03 14:07:00;;;;;;;3.90;1.70;;;;;;;;;;6212773;23;20075;-67
2022/06/03 14:09:30;;;;;;;2.35;1.70;;;;;;;;;;6205354;23;20025;-66
2022/06/03 14:12:09;;;;;;;3.47;1.75;;;;;;;;;;6213269;23;20102;-67
2022/06/03 14:14:46;;;;;;;3.72;2.00;;;;;;;;;;6198720;23;20059;-66
2022/06/03 14:17:28;;;;;;;5.00;2.00;;;;;;;;;;6206650;23;20489;-66
2022/06/03 14:20:01;;;;;;;2.55;1.70;;;;;;;;;;6204806;23;20051;-66
2022/06/03 14:22:51;;;;;;;4.90;1.80;;;;;;;;;;6213603;23;20021;-67
2022/06/03 14:25:26;;;;;;;4.10;2.03;;;;;;;;;;6163738;23;20500;-66
2022/06/03 14:28:06;;;;;;;3.33;1.95;;;;;;;;;;6207098;23;20044;-66
2022/06/03 14:30:36;;;;;;;3.08;1.90;;;;;;;;;;6199379;23;20092;-66
2022/06/03 14:33:04;;;;;;;2.17;1.65;;;;;;;;;;6212683;23;20048;-66
2022/06/03 14:35:33;;;;;;;5.35;2.05;;;;;;;;;;6204525;23;20104;-66
2022/06/03 14:38:19;;;;;;;5.15;2.75;;;;;;;;;;6212250;23;20062;-67
2022/06/03 14:40:47;;;;;;;2.58;1.90;;;;;;;;;;6203490;23;20091;-66
2022/06/03 14:43:16;;;;;;;2.58;1.80;;;;;;;;;;6203937;23;20518;-67
2022/06/03 14:45:49;;;;;;;1.98;1.77;;;;;;;;;;6207330;23;20021;-67
2022/06/03 14:48:18;;;;;;;5.40;2.03;;;;;;;;;;6205365;22;20024;-66
2022/06/03 14:50:54;;;;;;;2.25;1.80;;;;;;;;;;6212595;23;20442;-67
2022/06/03 14:53:28;;;;;;;2.40;1.85;;;;;;;;;;6204505;23;20017;-66
2022/06/03 14:56:00;;;;;;;4.22;1.67;;;;;;;;;;6206735;23;20099;-66
2022/06/03 14:58:33;;;;;;;3.65;2.05;;;;;;;;;;6198287;22;20056;-66
2022/06/03 15:01:03;;;;;;;4.60;1.95;;;;;;;;;;6211664;23;20409;-66
2022/06/03 15:03:32;;;;;;;2.33;1.73;;;;;;;;;;6204066;23;20028;-66
2022/06/03 15:06:00;;;;;;;3.28;1.70;;;;;;;;;;6211877;23;20055;-66
2022/06/03 15:08:41;;;;;;;3.60;2.30;;;;;;;;;;6204458;23;20133;-66
2022/06/03 15:11:08;;;;;;;3.70;2.10;;;;;;;;;;6205138;23;20060;-66
2022/06/03 15:13:35;;;;;;;19.75;10.90;;;;;;;;;;6206268;23;20124;-66
2022/06/03 15:16:06;;;;;;;15.57;8.20;;;;;;;;;;6205265;23;20025;-66
2022/06/03 15:18:33;;;;;;;4.63;2.45;;;;;;;;;;6211990;23;20020;-66
2022/06/03 15:21:05;;;;;;;2.57;1.83;;;;;;;;;;6204459;23;20056;-65
2022/06/03 15:23:33;;;;;;;4.25;1.63;;;;;;;;;;6209285;23;20505;-65
2022/06/03 15:25:59;;;;;;;;;;;;;;;;;;6197355;22;20044;-66
2022/06/03 15:28:26;;;;;;;3.72;1.90;;;;;;;;;;6210442;23;20633;-66
2022/06/03 15:31:01;;;;;;;2.47;1.80;;;;;;;;;;6203826;23;20024;-67
2022/06/03 15:33:29;;;;;;;3.33;2.17;;;;;;;;;;6210871;23;20020;-66
2022/06/03 15:35:57;;;;;;;3.15;2.10;;;;;;;;;;6212392;23;20100;-67
2022/06/03 15:38:24;;;;;;;3.47;1.77;;;;;;;;;;6197845;22;20391;-67
2022/06/03 15:40:58;;;;;;;6.43;4.30;;;;;;;;;;6205742;23;20071;-66
2022/06/03 15:43:27;;;;;;;7.57;3.10;;;;;;;;;;6203233;23;20016;-67
2022/06/03 15:45:53;;;;;;;5.00;3.17;;;;;;;;;;6211947;23;20025;-67
2022/06/03 15:48:25;;;;;;;4.32;2.38;;;;;;;;;;6203207;23;20021;-66
2022/06/03 15:51:02;;;;;;;4.78;1.92;;;;;;;;;;6211943;23;20052;-66
2022/06/03 15:53:30;;;;;;;5.43;1.90;;;;;;;;;;6193255;22;20025;-67
2022/06/03 15:55:59;;;;;;;4.55;2.60;;;;;;;;;;6211037;23;20111;-66
2022/06/03 15:58:44;;;;;;;2.83;1.83;;;;;;;;;;6210151;23;20043;-65
2022/06/03 16:01:33;;;;;;;3.10;1.73;;;;;;;;;;6210762;23;20431;-66